sensor_id;sensor_type;location;lat;lon;timestamp;P1;durP1;ratioP1;P2;durP2;ratioP2
69260;SDS011;56378;52.404;20.816;2023-03-09T00:01:58;39.05;;;15.65;;
69260;SDS011;56378;52.404;20.816;2023-03-09T00:04:25;37.93;;;15.10;;
69260;SDS011;56378;52.404;20.816;2023-03-09T00:06:51;40.33;;;15.52;;
69260;SDS011;56378;52.404;20.816;2023-03-09T00:09:17;42.10;;;15.88;;
69260;SDS011;56378;52.404;20.816;2023-03-09T00:11:43;37.07;;;15.43;;
69260;SDS011;56378;52.404;20.816;2023-03-09T00:14:12;40.05;;;16.52;;
69260;SDS011;56378;52.404;20.816;2023-03-09T00:16:39;34.95;;;14.48;;
69260;SDS011;56378;52.404;20.816;2023-03-09T00:19:05;36.15;;;15.30;;
69260;SDS011;56378;52.404;20.816;2023-03-09T00:21:32;35.17;;;14.87;;
69260;SDS011;56378;52.404;20.816;2023-03-09T00:24:13;37.22;;;15.13;;
69260;SDS011;56378;52.404;20.816;2023-03-09T00:26:42;38.35;;;15.65;;
69260;SDS011;56378;52.404;20.816;2023-03-09T00:29:12;34.25;;;14.48;;
69260;SDS011;56378;52.404;20.816;2023-03-09T00:31:39;38.72;;;15.25;;
69260;SDS011;56378;52.404;20.816;2023-03-09T00:34:06;40.47;;;15.43;;
69260;SDS011;56378;52.404;20.816;2023-03-09T00:36:32;37.33;;;15.65;;
69260;SDS011;56378;52.404;20.816;2023-03-09T00:38:58;42.08;;;16.15;;
69260;SDS011;56378;52.404;20.816;2023-03-09T00:41:25;39.93;;;15.73;;
69260;SDS011;56378;52.404;20.816;2023-03-09T00:43:52;40.45;;;16.33;;
69260;SDS011;56378;52.404;20.816;2023-03-09T00:46:18;40.85;;;16.77;;
69260;SDS011;56378;52.404;20.816;2023-03-09T00:48:44;42.42;;;16.73;;
69260;SDS011;56378;52.404;20.816;2023-03-09T00:51:10;40.08;;;16.77;;
69260;SDS011;56378;52.404;20.816;2023-03-09T00:53:37;40.00;;;16.45;;
69260;SDS011;56378;52.404;20.816;2023-03-09T00:56:05;39.95;;;16.52;;
69260;SDS011;56378;52.404;20.816;2023-03-09T00:58:32;42.42;;;16.63;;
69260;SDS011;56378;52.404;20.816;2023-03-09T01:00:59;41.92;;;18.00;;
69260;SDS011;56378;52.404;20.816;2023-03-09T01:03:25;40.70;;;16.88;;
69260;SDS011;56378;52.404;20.816;2023-03-09T01:05:51;41.28;;;15.40;;
69260;SDS011;56378;52.404;20.816;2023-03-09T01:08:17;42.88;;;18.17;;
69260;SDS011;56378;52.404;20.816;2023-03-09T01:10:43;41.17;;;17.00;;
69260;SDS011;56378;52.404;20.816;2023-03-09T01:13:09;43.20;;;17.13;;
69260;SDS011;56378;52.404;20.816;2023-03-09T01:15:35;41.97;;;17.05;;
69260;SDS011;56378;52.404;20.816;2023-03-09T01:18:01;40.83;;;16.97;;
69260;SDS011;56378;52.404;20.816;2023-03-09T01:20:27;41.65;;;16.48;;
69260;SDS011;56378;52.404;20.816;2023-03-09T01:22:53;35.70;;;14.52;;
69260;SDS011;56378;52.404;20.816;2023-03-09T01:25:19;42.33;;;15.37;;
69260;SDS011;56378;52.404;20.816;2023-03-09T01:27:45;34.50;;;13.73;;
69260;SDS011;56378;52.404;20.816;2023-03-09T01:30:11;33.97;;;14.80;;
69260;SDS011;56378;52.404;20.816;2023-03-09T01:32:37;31.75;;;13.35;;
69260;SDS011;56378;52.404;20.816;2023-03-09T01:35:03;34.25;;;12.77;;
69260;SDS011;56378;52.404;20.816;2023-03-09T01:37:30;32.87;;;12.63;;
69260;SDS011;56378;52.404;20.816;2023-03-09T01:39:55;31.92;;;12.15;;
69260;SDS011;56378;52.404;20.816;2023-03-09T01:42:21;27.77;;;11.70;;
69260;SDS011;56378;52.404;20.816;2023-03-09T01:45:07;24.53;;;10.87;;
69260;SDS011;56378;52.404;20.816;2023-03-09T01:47:37;21.08;;;10.02;;
69260;SDS011;56378;52.404;20.816;2023-03-09T01:50:02;20.67;;;9.02;;
69260;SDS011;56378;52.404;20.816;2023-03-09T01:52:30;21.67;;;8.85;;
69260;SDS011;56378;52.404;20.816;2023-03-09T01:55:05;19.53;;;8.07;;
69260;SDS011;56378;52.404;20.816;2023-03-09T01:57:51;19.25;;;8.13;;
69260;SDS011;56378;52.404;20.816;2023-03-09T02:00:30;19.17;;;7.95;;
69260;SDS011;56378;52.404;20.816;2023-03-09T02:03:00;17.05;;;7.53;;
69260;SDS011;56378;52.404;20.816;2023-03-09T02:05:32;15.70;;;6.40;;
69260;SDS011;56378;52.404;20.816;2023-03-09T02:08:10;17.97;;;7.23;;
69260;SDS011;56378;52.404;20.816;2023-03-09T02:10:43;16.10;;;7.30;;
69260;SDS011;56378;52.404;20.816;2023-03-09T02:13:17;21.08;;;7.07;;
69260;SDS011;56378;52.404;20.816;2023-03-09T02:15:45;15.80;;;6.75;;
69260;SDS011;56378;52.404;20.816;2023-03-09T02:18:11;15.75;;;6.32;;
69260;SDS011;56378;52.404;20.816;2023-03-09T02:23:22;17.73;;;6.90;;
69260;SDS011;56378;52.404;20.816;2023-03-09T02:28:56;13.68;;;6.03;;
69260;SDS011;56378;52.404;20.816;2023-03-09T02:31:22;16.43;;;5.57;;
69260;SDS011;56378;52.404;20.816;2023-03-09T02:33:48;15.00;;;6.10;;
69260;SDS011;56378;52.404;20.816;2023-03-09T02:36:14;13.70;;;5.78;;
69260;SDS011;56378;52.404;20.816;2023-03-09T02:38:40;14.97;;;5.80;;
69260;SDS011;56378;52.404;20.816;2023-03-09T02:41:06;15.05;;;5.35;;
69260;SDS011;56378;52.404;20.816;2023-03-09T02:43:36;14.25;;;6.00;;
69260;SDS011;56378;52.404;20.816;2023-03-09T02:46:07;15.57;;;6.03;;
69260;SDS011;56378;52.404;20.816;2023-03-09T02:48:33;15.40;;;6.28;;
69260;SDS011;56378;52.404;20.816;2023-03-09T02:51:00;14.18;;;5.85;;
69260;SDS011;56378;52.404;20.816;2023-03-09T02:53:26;15.65;;;5.88;;
69260;SDS011;56378;52.404;20.816;2023-03-09T02:55:52;15.50;;;6.00;;
69260;SDS011;56378;52.404;20.816;2023-03-09T02:58:18;14.23;;;5.55;;
69260;SDS011;56378;52.404;20.816;2023-03-09T03:00:43;12.83;;;5.70;;
69260;SDS011;56378;52.404;20.816;2023-03-09T03:03:09;13.77;;;5.43;;
69260;SDS011;56378;52.404;20.816;2023-03-09T03:05:35;14.83;;;5.50;;
69260;SDS011;56378;52.404;20.816;2023-03-09T03:08:00;16.65;;;5.95;;
69260;SDS011;56378;52.404;20.816;2023-03-09T03:10:26;16.83;;;5.73;;
69260;SDS011;56378;52.404;20.816;2023-03-09T03:12:52;17.13;;;6.10;;
69260;SDS011;56378;52.404;20.816;2023-03-09T03:15:18;15.53;;;6.00;;
69260;SDS011;56378;52.404;20.816;2023-03-09T03:17:44;14.65;;;5.88;;
69260;SDS011;56378;52.404;20.816;2023-03-09T03:20:09;14.37;;;5.90;;
69260;SDS011;56378;52.404;20.816;2023-03-09T03:22:40;13.02;;;5.38;;
69260;SDS011;56378;52.404;20.816;2023-03-09T03:25:07;13.98;;;5.75;;
69260;SDS011;56378;52.404;20.816;2023-03-09T03:27:33;14.35;;;5.80;;
69260;SDS011;56378;52.404;20.816;2023-03-09T03:29:58;13.60;;;5.67;;
69260;SDS011;56378;52.404;20.816;2023-03-09T03:32:25;15.93;;;5.97;;
69260;SDS011;56378;52.404;20.816;2023-03-09T03:34:51;13.30;;;5.82;;
69260;SDS011;56378;52.404;20.816;2023-03-09T03:37:17;13.27;;;6.10;;
69260;SDS011;56378;52.404;20.816;2023-03-09T03:39:43;11.88;;;5.65;;
69260;SDS011;56378;52.404;20.816;2023-03-09T03:42:09;14.30;;;5.90;;
69260;SDS011;56378;52.404;20.816;2023-03-09T03:44:34;14.88;;;6.28;;
69260;SDS011;56378;52.404;20.816;2023-03-09T03:47:00;13.93;;;5.57;;
69260;SDS011;56378;52.404;20.816;2023-03-09T03:49:26;13.00;;;5.78;;
69260;SDS011;56378;52.404;20.816;2023-03-09T03:51:52;13.13;;;5.18;;
69260;SDS011;56378;52.404;20.816;2023-03-09T03:54:18;16.40;;;6.20;;
69260;SDS011;56378;52.404;20.816;2023-03-09T03:56:44;13.55;;;5.57;;
69260;SDS011;56378;52.404;20.816;2023-03-09T03:59:09;13.45;;;6.03;;
69260;SDS011;56378;52.404;20.816;2023-03-09T04:01:35;12.30;;;5.25;;
69260;SDS011;56378;52.404;20.816;2023-03-09T04:04:01;12.25;;;5.32;;
69260;SDS011;56378;52.404;20.816;2023-03-09T04:06:27;12.57;;;5.87;;
69260;SDS011;56378;52.404;20.816;2023-03-09T04:08:53;16.98;;;6.28;;
69260;SDS011;56378;52.404;20.816;2023-03-09T04:11:19;15.00;;;6.07;;
69260;SDS011;56378;52.404;20.816;2023-03-09T04:13:48;15.02;;;5.80;;
69260;SDS011;56378;52.404;20.816;2023-03-09T04:16:14;14.35;;;5.75;;
69260;SDS011;56378;52.404;20.816;2023-03-09T04:18:40;15.03;;;5.60;;
69260;SDS011;56378;52.404;20.816;2023-03-09T04:21:06;14.75;;;5.97;;
69260;SDS011;56378;52.404;20.816;2023-03-09T04:23:32;14.70;;;5.93;;
69260;SDS011;56378;52.404;20.816;2023-03-09T04:25:58;17.77;;;5.72;;
69260;SDS011;56378;52.404;20.816;2023-03-09T04:28:26;14.37;;;5.87;;
69260;SDS011;56378;52.404;20.816;2023-03-09T04:30:52;12.45;;;5.90;;
69260;SDS011;56378;52.404;20.816;2023-03-09T04:33:18;15.15;;;5.93;;
69260;SDS011;56378;52.404;20.816;2023-03-09T04:35:45;12.95;;;5.55;;
69260;SDS011;56378;52.404;20.816;2023-03-09T04:38:11;15.00;;;5.88;;
69260;SDS011;56378;52.404;20.816;2023-03-09T04:40:36;13.20;;;5.73;;
69260;SDS011;56378;52.404;20.816;2023-03-09T04:43:03;14.90;;;6.03;;
69260;SDS011;56378;52.404;20.816;2023-03-09T04:45:29;13.45;;;5.60;;
69260;SDS011;56378;52.404;20.816;2023-03-09T04:47:55;14.30;;;5.80;;
69260;SDS011;56378;52.404;20.816;2023-03-09T04:50:21;14.90;;;5.47;;
69260;SDS011;56378;52.404;20.816;2023-03-09T04:52:47;13.10;;;5.68;;
69260;SDS011;56378;52.404;20.816;2023-03-09T04:55:14;13.15;;;5.82;;
69260;SDS011;56378;52.404;20.816;2023-03-09T04:57:41;17.38;;;6.47;;
69260;SDS011;56378;52.404;20.816;2023-03-09T05:00:06;15.17;;;5.93;;
69260;SDS011;56378;52.404;20.816;2023-03-09T05:02:36;13.90;;;5.72;;
69260;SDS011;56378;52.404;20.816;2023-03-09T05:05:02;15.85;;;6.32;;
69260;SDS011;56378;52.404;20.816;2023-03-09T05:07:29;14.57;;;6.15;;
69260;SDS011;56378;52.404;20.816;2023-03-09T05:09:54;16.10;;;6.43;;
69260;SDS011;56378;52.404;20.816;2023-03-09T05:12:20;14.03;;;6.43;;
69260;SDS011;56378;52.404;20.816;2023-03-09T05:14:46;15.90;;;6.03;;
69260;SDS011;56378;52.404;20.816;2023-03-09T05:17:11;14.97;;;6.37;;
69260;SDS011;56378;52.404;20.816;2023-03-09T05:19:37;16.42;;;7.18;;
69260;SDS011;56378;52.404;20.816;2023-03-09T05:22:03;19.05;;;7.18;;
69260;SDS011;56378;52.404;20.816;2023-03-09T05:24:29;15.87;;;6.53;;
69260;SDS011;56378;52.404;20.816;2023-03-09T05:26:55;16.73;;;7.15;;
69260;SDS011;56378;52.404;20.816;2023-03-09T05:29:21;16.80;;;7.57;;
69260;SDS011;56378;52.404;20.816;2023-03-09T05:31:47;19.80;;;7.40;;
69260;SDS011;56378;52.404;20.816;2023-03-09T05:34:13;16.70;;;7.82;;
69260;SDS011;56378;52.404;20.816;2023-03-09T05:36:38;20.60;;;8.43;;
69260;SDS011;56378;52.404;20.816;2023-03-09T05:39:04;19.33;;;7.80;;
69260;SDS011;56378;52.404;20.816;2023-03-09T05:41:30;18.48;;;7.25;;
69260;SDS011;56378;52.404;20.816;2023-03-09T05:43:59;17.10;;;7.17;;
69260;SDS011;56378;52.404;20.816;2023-03-09T05:46:25;19.02;;;7.65;;
69260;SDS011;56378;52.404;20.816;2023-03-09T05:48:51;18.52;;;7.82;;
69260;SDS011;56378;52.404;20.816;2023-03-09T05:51:17;18.43;;;7.33;;
69260;SDS011;56378;52.404;20.816;2023-03-09T05:53:43;20.63;;;7.75;;
69260;SDS011;56378;52.404;20.816;2023-03-09T05:56:09;16.55;;;7.30;;
69260;SDS011;56378;52.404;20.816;2023-03-09T05:58:34;16.20;;;7.00;;
69260;SDS011;56378;52.404;20.816;2023-03-09T06:01:00;20.02;;;8.07;;
69260;SDS011;56378;52.404;20.816;2023-03-09T06:03:26;19.67;;;7.68;;
69260;SDS011;56378;52.404;20.816;2023-03-09T06:06:00;16.57;;;7.83;;
69260;SDS011;56378;52.404;20.816;2023-03-09T06:08:27;15.88;;;6.97;;
69260;SDS011;56378;52.404;20.816;2023-03-09T06:10:53;19.13;;;8.00;;
69260;SDS011;56378;52.404;20.816;2023-03-09T06:13:19;21.50;;;7.90;;
69260;SDS011;56378;52.404;20.816;2023-03-09T06:15:45;19.52;;;8.40;;
69260;SDS011;56378;52.404;20.816;2023-03-09T06:18:11;17.10;;;7.20;;
69260;SDS011;56378;52.404;20.816;2023-03-09T06:20:37;20.80;;;8.50;;
69260;SDS011;56378;52.404;20.816;2023-03-09T06:23:03;17.33;;;7.63;;
69260;SDS011;56378;52.404;20.816;2023-03-09T06:25:29;16.63;;;7.63;;
69260;SDS011;56378;52.404;20.816;2023-03-09T06:27:55;19.15;;;8.30;;
69260;SDS011;56378;52.404;20.816;2023-03-09T06:30:20;21.23;;;8.03;;
69260;SDS011;56378;52.404;20.816;2023-03-09T06:32:46;20.23;;;7.95;;
69260;SDS011;56378;52.404;20.816;2023-03-09T06:35:12;18.60;;;8.32;;
69260;SDS011;56378;52.404;20.816;2023-03-09T06:37:38;19.38;;;7.80;;
69260;SDS011;56378;52.404;20.816;2023-03-09T06:40:04;20.80;;;8.60;;
69260;SDS011;56378;52.404;20.816;2023-03-09T06:42:30;18.95;;;8.38;;
69260;SDS011;56378;52.404;20.816;2023-03-09T06:44:56;17.57;;;7.77;;
69260;SDS011;56378;52.404;20.816;2023-03-09T06:47:22;20.48;;;9.63;;
69260;SDS011;56378;52.404;20.816;2023-03-09T06:49:48;21.73;;;8.80;;
69260;SDS011;56378;52.404;20.816;2023-03-09T06:52:13;18.30;;;7.60;;
69260;SDS011;56378;52.404;20.816;2023-03-09T06:54:39;19.07;;;8.07;;
69260;SDS011;56378;52.404;20.816;2023-03-09T06:57:05;17.85;;;7.57;;
69260;SDS011;56378;52.404;20.816;2023-03-09T06:59:31;17.80;;;7.43;;
69260;SDS011;56378;52.404;20.816;2023-03-09T07:01:56;16.53;;;6.73;;
69260;SDS011;56378;52.404;20.816;2023-03-09T07:04:22;16.27;;;7.25;;
69260;SDS011;56378;52.404;20.816;2023-03-09T07:06:48;20.23;;;9.20;;
69260;SDS011;56378;52.404;20.816;2023-03-09T07:09:13;16.13;;;7.10;;
69260;SDS011;56378;52.404;20.816;2023-03-09T07:11:39;15.55;;;6.93;;
69260;SDS011;56378;52.404;20.816;2023-03-09T07:14:05;17.33;;;7.05;;
69260;SDS011;56378;52.404;20.816;2023-03-09T07:16:31;17.43;;;7.13;;
69260;SDS011;56378;52.404;20.816;2023-03-09T07:18:57;15.50;;;6.78;;
69260;SDS011;56378;52.404;20.816;2023-03-09T07:21:23;16.80;;;7.53;;
69260;SDS011;56378;52.404;20.816;2023-03-09T07:23:48;18.70;;;7.50;;
69260;SDS011;56378;52.404;20.816;2023-03-09T07:26:14;15.07;;;7.00;;
69260;SDS011;56378;52.404;20.816;2023-03-09T07:28:40;16.40;;;7.60;;
69260;SDS011;56378;52.404;20.816;2023-03-09T07:31:09;15.63;;;7.03;;
69260;SDS011;56378;52.404;20.816;2023-03-09T07:33:37;13.93;;;6.57;;
69260;SDS011;56378;52.404;20.816;2023-03-09T07:36:06;14.30;;;6.95;;
69260;SDS011;56378;52.404;20.816;2023-03-09T07:38:33;16.50;;;6.88;;
69260;SDS011;56378;52.404;20.816;2023-03-09T07:40:59;18.17;;;7.20;;
69260;SDS011;56378;52.404;20.816;2023-03-09T07:43:26;14.27;;;5.65;;
69260;SDS011;56378;52.404;20.816;2023-03-09T07:45:52;15.80;;;6.30;;
69260;SDS011;56378;52.404;20.816;2023-03-09T07:48:18;15.80;;;6.50;;
69260;SDS011;56378;52.404;20.816;2023-03-09T07:50:44;12.40;;;6.20;;
69260;SDS011;56378;52.404;20.816;2023-03-09T07:53:10;14.33;;;6.20;;
69260;SDS011;56378;52.404;20.816;2023-03-09T07:55:36;12.50;;;5.95;;
69260;SDS011;56378;52.404;20.816;2023-03-09T07:58:03;14.23;;;6.35;;
69260;SDS011;56378;52.404;20.816;2023-03-09T08:00:29;14.60;;;6.28;;
69260;SDS011;56378;52.404;20.816;2023-03-09T08:02:57;16.83;;;6.82;;
69260;SDS011;56378;52.404;20.816;2023-03-09T08:05:23;15.87;;;6.10;;
69260;SDS011;56378;52.404;20.816;2023-03-09T08:07:49;13.95;;;5.88;;
69260;SDS011;56378;52.404;20.816;2023-03-09T08:10:16;16.42;;;6.55;;
69260;SDS011;56378;52.404;20.816;2023-03-09T08:12:46;14.30;;;6.73;;
69260;SDS011;56378;52.404;20.816;2023-03-09T08:15:13;13.55;;;5.90;;
69260;SDS011;56378;52.404;20.816;2023-03-09T08:17:38;15.07;;;6.90;;
69260;SDS011;56378;52.404;20.816;2023-03-09T08:20:05;13.90;;;6.93;;
69260;SDS011;56378;52.404;20.816;2023-03-09T08:22:34;17.33;;;7.30;;
69260;SDS011;56378;52.404;20.816;2023-03-09T08:25:01;15.95;;;7.05;;
69260;SDS011;56378;52.404;20.816;2023-03-09T08:27:28;15.57;;;6.65;;
69260;SDS011;56378;52.404;20.816;2023-03-09T08:29:54;22.67;;;9.15;;
69260;SDS011;56378;52.404;20.816;2023-03-09T08:32:19;14.20;;;6.30;;
69260;SDS011;56378;52.404;20.816;2023-03-09T08:34:47;15.93;;;6.43;;
69260;SDS011;56378;52.404;20.816;2023-03-09T08:37:13;14.57;;;6.60;;
69260;SDS011;56378;52.404;20.816;2023-03-09T08:39:39;13.77;;;6.17;;
69260;SDS011;56378;52.404;20.816;2023-03-09T08:42:05;13.38;;;5.88;;
69260;SDS011;56378;52.404;20.816;2023-03-09T08:44:31;15.43;;;7.20;;
69260;SDS011;56378;52.404;20.816;2023-03-09T08:46:57;14.37;;;6.37;;
69260;SDS011;56378;52.404;20.816;2023-03-09T08:49:22;16.83;;;7.15;;
69260;SDS011;56378;52.404;20.816;2023-03-09T08:51:48;14.67;;;6.20;;
69260;SDS011;56378;52.404;20.816;2023-03-09T08:54:15;14.38;;;6.93;;
69260;SDS011;56378;52.404;20.816;2023-03-09T08:56:41;15.25;;;7.22;;
69260;SDS011;56378;52.404;20.816;2023-03-09T08:59:06;15.03;;;6.67;;
69260;SDS011;56378;52.404;20.816;2023-03-09T09:01:32;13.70;;;6.05;;
69260;SDS011;56378;52.404;20.816;2023-03-09T09:03:58;16.07;;;6.87;;
69260;SDS011;56378;52.404;20.816;2023-03-09T09:06:24;14.82;;;6.35;;
69260;SDS011;56378;52.404;20.816;2023-03-09T09:08:49;15.60;;;6.07;;
69260;SDS011;56378;52.404;20.816;2023-03-09T09:11:16;16.50;;;7.10;;
69260;SDS011;56378;52.404;20.816;2023-03-09T09:13:42;14.63;;;6.97;;
69260;SDS011;56378;52.404;20.816;2023-03-09T09:16:08;15.10;;;6.47;;
69260;SDS011;56378;52.404;20.816;2023-03-09T09:18:35;14.48;;;6.53;;
69260;SDS011;56378;52.404;20.816;2023-03-09T09:21:05;14.82;;;5.93;;
69260;SDS011;56378;52.404;20.816;2023-03-09T09:23:36;11.73;;;5.83;;
69260;SDS011;56378;52.404;20.816;2023-03-09T09:26:03;10.32;;;3.97;;
69260;SDS011;56378;52.404;20.816;2023-03-09T09:28:29;11.10;;;4.72;;
69260;SDS011;56378;52.404;20.816;2023-03-09T09:30:57;9.73;;;4.57;;
69260;SDS011;56378;52.404;20.816;2023-03-09T09:33:24;11.52;;;4.70;;
69260;SDS011;56378;52.404;20.816;2023-03-09T09:38:24;9.32;;;4.03;;
69260;SDS011;56378;52.404;20.816;2023-03-09T09:40:51;10.18;;;4.40;;
69260;SDS011;56378;52.404;20.816;2023-03-09T09:43:19;10.50;;;4.30;;
69260;SDS011;56378;52.404;20.816;2023-03-09T09:45:50;11.13;;;4.05;;
69260;SDS011;56378;52.404;20.816;2023-03-09T09:48:19;10.07;;;4.57;;
69260;SDS011;56378;52.404;20.816;2023-03-09T09:53:34;11.25;;;4.55;;
69260;SDS011;56378;52.404;20.816;2023-03-09T09:56:18;10.30;;;4.20;;
69260;SDS011;56378;52.404;20.816;2023-03-09T09:59:00;10.15;;;4.30;;
69260;SDS011;56378;52.404;20.816;2023-03-09T10:01:38;12.87;;;4.30;;
69260;SDS011;56378;52.404;20.816;2023-03-09T10:04:28;13.10;;;4.50;;
69260;SDS011;56378;52.404;20.816;2023-03-09T10:07:20;9.30;;;4.00;;
69260;SDS011;56378;52.404;20.816;2023-03-09T10:09:51;10.45;;;4.03;;
69260;SDS011;56378;52.404;20.816;2023-03-09T10:12:29;13.02;;;4.90;;
69260;SDS011;56378;52.404;20.816;2023-03-09T10:14:57;10.67;;;4.97;;
69260;SDS011;56378;52.404;20.816;2023-03-09T10:17:36;10.35;;;4.35;;
69260;SDS011;56378;52.404;20.816;2023-03-09T10:20:17;11.20;;;4.53;;
69260;SDS011;56378;52.404;20.816;2023-03-09T10:22:46;12.63;;;4.32;;
69260;SDS011;56378;52.404;20.816;2023-03-09T10:25:15;11.75;;;4.50;;
69260;SDS011;56378;52.404;20.816;2023-03-09T10:32:51;11.63;;;4.63;;
69260;SDS011;56378;52.404;20.816;2023-03-09T10:38:14;10.95;;;4.45;;
69260;SDS011;56378;52.404;20.816;2023-03-09T10:40:44;9.77;;;4.20;;
69260;SDS011;56378;52.404;20.816;2023-03-09T10:43:17;8.73;;;3.80;;
69260;SDS011;56378;52.404;20.816;2023-03-09T10:45:44;11.40;;;4.63;;
69260;SDS011;56378;52.404;20.816;2023-03-09T10:48:18;15.32;;;5.55;;
69260;SDS011;56378;52.404;20.816;2023-03-09T10:58:46;19.33;;;8.30;;
69260;SDS011;56378;52.404;20.816;2023-03-09T11:01:35;11.88;;;5.50;;
69260;SDS011;56378;52.404;20.816;2023-03-09T11:04:03;11.23;;;4.40;;
69260;SDS011;56378;52.404;20.816;2023-03-09T11:06:57;15.20;;;6.45;;
69260;SDS011;56378;52.404;20.816;2023-03-09T11:09:35;20.85;;;8.73;;
69260;SDS011;56378;52.404;20.816;2023-03-09T11:12:09;12.10;;;4.88;;
69260;SDS011;56378;52.404;20.816;2023-03-09T11:22:47;10.93;;;4.45;;
69260;SDS011;56378;52.404;20.816;2023-03-09T11:25:21;11.25;;;4.82;;
69260;SDS011;56378;52.404;20.816;2023-03-09T11:27:51;10.90;;;4.70;;
69260;SDS011;56378;52.404;20.816;2023-03-09T11:30:23;13.10;;;3.90;;
69260;SDS011;56378;52.404;20.816;2023-03-09T11:32:53;9.75;;;3.85;;
69260;SDS011;56378;52.404;20.816;2023-03-09T11:35:19;10.75;;;4.28;;
69260;SDS011;56378;52.404;20.816;2023-03-09T11:37:51;10.77;;;4.55;;
69260;SDS011;56378;52.404;20.816;2023-03-09T11:40:22;9.57;;;3.47;;
69260;SDS011;56378;52.404;20.816;2023-03-09T11:43:03;9.17;;;3.40;;
69260;SDS011;56378;52.404;20.816;2023-03-09T11:45:43;6.28;;;2.50;;
69260;SDS011;56378;52.404;20.816;2023-03-09T11:56:12;5.63;;;1.88;;
69260;SDS011;56378;52.404;20.816;2023-03-09T11:58:47;4.97;;;2.20;;
69260;SDS011;56378;52.404;20.816;2023-03-09T12:01:32;6.38;;;2.45;;
69260;SDS011;56378;52.404;20.816;2023-03-09T12:04:03;5.82;;;2.40;;
69260;SDS011;56378;52.404;20.816;2023-03-09T12:07:05;6.43;;;2.47;;
69260;SDS011;56378;52.404;20.816;2023-03-09T12:12:33;5.82;;;2.20;;
69260;SDS011;56378;52.404;20.816;2023-03-09T12:17:46;8.25;;;3.05;;
69260;SDS011;56378;52.404;20.816;2023-03-09T12:20:40;6.30;;;2.30;;
69260;SDS011;56378;52.404;20.816;2023-03-09T12:29:02;7.70;;;2.70;;
69260;SDS011;56378;52.404;20.816;2023-03-09T12:31:37;4.80;;;2.15;;
69260;SDS011;56378;52.404;20.816;2023-03-09T12:34:26;7.47;;;2.37;;
69260;SDS011;56378;52.404;20.816;2023-03-09T12:36:50;7.63;;;2.60;;
69260;SDS011;56378;52.404;20.816;2023-03-09T12:41:59;5.50;;;2.25;;
69260;SDS011;56378;52.404;20.816;2023-03-09T12:50:29;7.78;;;2.63;;
69260;SDS011;56378;52.404;20.816;2023-03-09T13:03:22;12.05;;;3.78;;
69260;SDS011;56378;52.404;20.816;2023-03-09T13:05:53;9.68;;;3.22;;
69260;SDS011;56378;52.404;20.816;2023-03-09T13:08:28;7.27;;;2.60;;
69260;SDS011;56378;52.404;20.816;2023-03-09T13:13:53;11.25;;;3.10;;
69260;SDS011;56378;52.404;20.816;2023-03-09T13:16:36;14.68;;;5.15;;
69260;SDS011;56378;52.404;20.816;2023-03-09T13:32:36;14.18;;;4.95;;
69260;SDS011;56378;52.404;20.816;2023-03-09T13:37:59;10.95;;;4.30;;
69260;SDS011;56378;52.404;20.816;2023-03-09T13:40:27;15.88;;;6.53;;
69260;SDS011;56378;52.404;20.816;2023-03-09T13:42:58;13.85;;;5.65;;
69260;SDS011;56378;52.404;20.816;2023-03-09T13:45:29;17.83;;;7.38;;
69260;SDS011;56378;52.404;20.816;2023-03-09T13:48:00;7.03;;;3.20;;
69260;SDS011;56378;52.404;20.816;2023-03-09T13:50:30;7.72;;;3.05;;
69260;SDS011;56378;52.404;20.816;2023-03-09T13:55:28;10.77;;;5.15;;
69260;SDS011;56378;52.404;20.816;2023-03-09T13:58:05;9.40;;;3.38;;
69260;SDS011;56378;52.404;20.816;2023-03-09T14:00:50;8.80;;;3.57;;
69260;SDS011;56378;52.404;20.816;2023-03-09T14:03:21;6.97;;;2.45;;
69260;SDS011;56378;52.404;20.816;2023-03-09T14:06:01;10.23;;;3.75;;
69260;SDS011;56378;52.404;20.816;2023-03-09T14:08:34;14.10;;;5.30;;
69260;SDS011;56378;52.404;20.816;2023-03-09T14:11:07;15.07;;;6.10;;
69260;SDS011;56378;52.404;20.816;2023-03-09T14:13:50;12.60;;;4.23;;
69260;SDS011;56378;52.404;20.816;2023-03-09T14:16:22;11.20;;;3.70;;
69260;SDS011;56378;52.404;20.816;2023-03-09T14:18:49;15.70;;;6.90;;
69260;SDS011;56378;52.404;20.816;2023-03-09T14:21:20;11.43;;;4.70;;
69260;SDS011;56378;52.404;20.816;2023-03-09T14:23:51;12.60;;;4.50;;
69260;SDS011;56378;52.404;20.816;2023-03-09T14:26:28;11.40;;;4.17;;
69260;SDS011;56378;52.404;20.816;2023-03-09T14:29:03;30.17;;;9.25;;
69260;SDS011;56378;52.404;20.816;2023-03-09T14:31:41;16.92;;;6.88;;
69260;SDS011;56378;52.404;20.816;2023-03-09T14:36:49;10.45;;;4.38;;
69260;SDS011;56378;52.404;20.816;2023-03-09T14:39:26;11.50;;;3.80;;
69260;SDS011;56378;52.404;20.816;2023-03-09T14:44:43;11.48;;;4.75;;
69260;SDS011;56378;52.404;20.816;2023-03-09T14:49:40;15.45;;;5.00;;
69260;SDS011;56378;52.404;20.816;2023-03-09T14:52:09;11.83;;;4.77;;
69260;SDS011;56378;52.404;20.816;2023-03-09T14:54:37;11.43;;;4.20;;
69260;SDS011;56378;52.404;20.816;2023-03-09T14:57:03;10.85;;;4.32;;
69260;SDS011;56378;52.404;20.816;2023-03-09T14:59:29;13.88;;;5.50;;
69260;SDS011;56378;52.404;20.816;2023-03-09T15:01:56;11.95;;;4.85;;
69260;SDS011;56378;52.404;20.816;2023-03-09T15:04:26;12.33;;;4.50;;
69260;SDS011;56378;52.404;20.816;2023-03-09T15:06:53;14.07;;;5.30;;
69260;SDS011;56378;52.404;20.816;2023-03-09T15:09:19;17.80;;;5.82;;
69260;SDS011;56378;52.404;20.816;2023-03-09T15:11:45;15.05;;;5.60;;
69260;SDS011;56378;52.404;20.816;2023-03-09T15:16:55;12.73;;;4.88;;
69260;SDS011;56378;52.404;20.816;2023-03-09T15:19:21;14.18;;;6.28;;
69260;SDS011;56378;52.404;20.816;2023-03-09T15:21:47;11.43;;;5.30;;
69260;SDS011;56378;52.404;20.816;2023-03-09T15:24:16;10.90;;;4.25;;
69260;SDS011;56378;52.404;20.816;2023-03-09T15:26:41;10.10;;;3.85;;
69260;SDS011;56378;52.404;20.816;2023-03-09T15:29:07;9.47;;;3.77;;
69260;SDS011;56378;52.404;20.816;2023-03-09T15:31:33;12.65;;;4.78;;
69260;SDS011;56378;52.404;20.816;2023-03-09T15:33:59;12.88;;;4.10;;
69260;SDS011;56378;52.404;20.816;2023-03-09T15:36:25;10.83;;;4.27;;
69260;SDS011;56378;52.404;20.816;2023-03-09T15:38:51;12.85;;;4.05;;
69260;SDS011;56378;52.404;20.816;2023-03-09T15:41:17;12.05;;;4.30;;
69260;SDS011;56378;52.404;20.816;2023-03-09T15:43:44;14.57;;;4.80;;
69260;SDS011;56378;52.404;20.816;2023-03-09T15:46:10;11.65;;;4.40;;
69260;SDS011;56378;52.404;20.816;2023-03-09T15:48:36;10.55;;;4.13;;
69260;SDS011;56378;52.404;20.816;2023-03-09T15:51:02;13.30;;;4.45;;
69260;SDS011;56378;52.404;20.816;2023-03-09T15:53:29;13.70;;;4.00;;
69260;SDS011;56378;52.404;20.816;2023-03-09T15:55:56;11.63;;;4.60;;
69260;SDS011;56378;52.404;20.816;2023-03-09T15:58:23;11.60;;;4.88;;
69260;SDS011;56378;52.404;20.816;2023-03-09T16:00:49;11.70;;;4.63;;
69260;SDS011;56378;52.404;20.816;2023-03-09T16:03:15;11.98;;;5.00;;
69260;SDS011;56378;52.404;20.816;2023-03-09T16:05:41;13.67;;;6.10;;
69260;SDS011;56378;52.404;20.816;2023-03-09T16:08:07;13.82;;;6.07;;
69260;SDS011;56378;52.404;20.816;2023-03-09T16:10:33;16.33;;;5.47;;
69260;SDS011;56378;52.404;20.816;2023-03-09T16:12:59;12.98;;;4.88;;
69260;SDS011;56378;52.404;20.816;2023-03-09T16:15:25;14.25;;;4.97;;